Franklin, IN

11:19 AM EDT on August 24, 2016 (GMT -0400)
Jefferson Estates | | Change Station

Elev 741 ft 39.48 °N, 86.03 °W | Updated 5 minutes ago

Clear
Clear
76.2 °F
Feels Like 77 °F
N
2.0
Wind Variable Wind from SSW
Gusts 9.0 mph

Today
High -- | Low -- °F
--% Chance of Precip.
Yesterday
High -- | Low -- °F
Precip. -- in
Pressure 30.13 in
Visibility 10.0 miles
Clouds Clear
Heat Index 77 °F
Dew Point 71 °F
Humidity 85%
Rainfall 0.00 in
Snow Depth Not available.
7:05 AM 8:26 PM
Waning Gibbous, 56% visible
METAR KGEZ 241453Z AUTO 21011G17KT 10SM CLR 25/20 A3014 RMK AO2 SLP201 T02500200 58004
Pressure 30.13 in
Visibility 10.0 miles
Clouds Clear
Heat Index 77 °F
Dew Point 71 °F
Humidity 85%
Rainfall 0.00 in
Snow Depth Not available.
7:05 AM 8:26 PM
Waning Gibbous, 56% visible
METAR KGEZ 241453Z AUTO 21011G17KT 10SM CLR 25/20 A3014 RMK AO2 SLP201 T02500200 58004

10-Day Weather Forecast

Almanac

Astronomy

Aug. 24, 2016 Rise Set
Actual Time
Civil Twilight
Nautical Twilight
Astronomical Twilight
Moon
Length of Visible Light
Length of Day
Tomorrow will be .
, % of the Moon is Illuminated

Today's Extremes

State Highs State Lows

Community

WunderPhotos

Upload Photos

1,934,616 photos uploaded!

WunderBlog® & News

Nearby

Air Quality

  Air Quality AQ Index Pollutant
Not available.

Snow Depth

Station Depth Elevation

Earthquake Activity

City Distance Mag. Time & Date
Minimum magnitude displayed is 2.5.

Coastal Water Temperatures

Place Temperature

Stations

Nearby Weather Stations

Station Location Temp. Windchill Dew Point Humidity Wind Precip. Elev Updated Type
                   

Watches & Warnings

There are currently no watches in effect.